sensor_id;sensor_type;location;lat;lon;timestamp;P1;durP1;ratioP1;P2;durP2;ratioP2
4563;SDS011;2294;51.818;8.484;2023-08-31T00:00:24;17.50;;;13.27;;
4563;SDS011;2294;51.818;8.484;2023-08-31T00:02:51;22.43;;;14.17;;
4563;SDS011;2294;51.818;8.484;2023-08-31T00:05:19;19.47;;;13.60;;
4563;SDS011;2294;51.818;8.484;2023-08-31T00:07:47;18.40;;;12.03;;
4563;SDS011;2294;51.818;8.484;2023-08-31T00:10:14;17.57;;;13.47;;
4563;SDS011;2294;51.818;8.484;2023-08-31T00:12:43;22.33;;;12.43;;
4563;SDS011;2294;51.818;8.484;2023-08-31T00:15:10;18.97;;;11.70;;
4563;SDS011;2294;51.818;8.484;2023-08-31T00:17:38;18.17;;;12.90;;
4563;SDS011;2294;51.818;8.484;2023-08-31T00:20:06;21.20;;;12.33;;
4563;SDS011;2294;51.818;8.484;2023-08-31T00:22:36;21.30;;;11.63;;
4563;SDS011;2294;51.818;8.484;2023-08-31T00:25:04;18.93;;;12.13;;
4563;SDS011;2294;51.818;8.484;2023-08-31T00:27:33;22.37;;;12.63;;
4563;SDS011;2294;51.818;8.484;2023-08-31T00:30:04;16.63;;;12.13;;
4563;SDS011;2294;51.818;8.484;2023-08-31T00:32:32;22.87;;;11.50;;
4563;SDS011;2294;51.818;8.484;2023-08-31T00:35:00;15.10;;;11.97;;
4563;SDS011;2294;51.818;8.484;2023-08-31T00:37:28;17.40;;;11.47;;
4563;SDS011;2294;51.818;8.484;2023-08-31T00:39:56;19.13;;;11.20;;
4563;SDS011;2294;51.818;8.484;2023-08-31T00:42:23;17.80;;;11.30;;
4563;SDS011;2294;51.818;8.484;2023-08-31T00:44:51;21.43;;;11.83;;
4563;SDS011;2294;51.818;8.484;2023-08-31T00:47:19;16.90;;;11.50;;
4563;SDS011;2294;51.818;8.484;2023-08-31T00:49:47;17.10;;;12.17;;
4563;SDS011;2294;51.818;8.484;2023-08-31T00:52:15;21.50;;;12.27;;
4563;SDS011;2294;51.818;8.484;2023-08-31T00:54:42;16.30;;;12.20;;
4563;SDS011;2294;51.818;8.484;2023-08-31T00:57:10;18.83;;;11.37;;
4563;SDS011;2294;51.818;8.484;2023-08-31T00:59:37;20.63;;;11.90;;
4563;SDS011;2294;51.818;8.484;2023-08-31T01:02:07;19.83;;;13.53;;
4563;SDS011;2294;51.818;8.484;2023-08-31T01:04:41;17.07;;;11.10;;
4563;SDS011;2294;51.818;8.484;2023-08-31T01:07:11;17.00;;;12.37;;
4563;SDS011;2294;51.818;8.484;2023-08-31T01:09:43;23.83;;;11.67;;
4563;SDS011;2294;51.818;8.484;2023-08-31T01:12:15;22.37;;;13.60;;
4563;SDS011;2294;51.818;8.484;2023-08-31T01:14:44;19.50;;;12.07;;
4563;SDS011;2294;51.818;8.484;2023-08-31T01:17:14;19.37;;;12.80;;
4563;SDS011;2294;51.818;8.484;2023-08-31T01:19:48;22.20;;;13.00;;
4563;SDS011;2294;51.818;8.484;2023-08-31T01:22:18;14.53;;;12.00;;
4563;SDS011;2294;51.818;8.484;2023-08-31T01:24:49;19.60;;;13.80;;
4563;SDS011;2294;51.818;8.484;2023-08-31T01:27:17;21.63;;;12.27;;
4563;SDS011;2294;51.818;8.484;2023-08-31T01:29:44;15.40;;;12.47;;
4563;SDS011;2294;51.818;8.484;2023-08-31T01:32:12;24.23;;;12.97;;
4563;SDS011;2294;51.818;8.484;2023-08-31T01:34:39;18.10;;;13.20;;
4563;SDS011;2294;51.818;8.484;2023-08-31T01:37:08;20.17;;;12.20;;
4563;SDS011;2294;51.818;8.484;2023-08-31T01:39:37;17.83;;;12.67;;
4563;SDS011;2294;51.818;8.484;2023-08-31T01:42:09;18.67;;;13.03;;
4563;SDS011;2294;51.818;8.484;2023-08-31T01:44:38;28.93;;;13.60;;
4563;SDS011;2294;51.818;8.484;2023-08-31T01:47:06;19.80;;;13.90;;
4563;SDS011;2294;51.818;8.484;2023-08-31T01:49:37;17.77;;;12.73;;
4563;SDS011;2294;51.818;8.484;2023-08-31T01:52:04;21.80;;;14.80;;
4563;SDS011;2294;51.818;8.484;2023-08-31T01:54:32;25.50;;;14.10;;
4563;SDS011;2294;51.818;8.484;2023-08-31T01:56:59;19.97;;;14.30;;
4563;SDS011;2294;51.818;8.484;2023-08-31T01:59:29;19.23;;;12.90;;
4563;SDS011;2294;51.818;8.484;2023-08-31T02:01:56;16.53;;;11.27;;
4563;SDS011;2294;51.818;8.484;2023-08-31T02:04:23;22.03;;;12.80;;
4563;SDS011;2294;51.818;8.484;2023-08-31T02:06:51;20.93;;;12.93;;
4563;SDS011;2294;51.818;8.484;2023-08-31T02:09:18;27.87;;;13.70;;
4563;SDS011;2294;51.818;8.484;2023-08-31T02:11:45;17.30;;;12.57;;
4563;SDS011;2294;51.818;8.484;2023-08-31T02:14:13;18.30;;;13.13;;
4563;SDS011;2294;51.818;8.484;2023-08-31T02:16:41;28.47;;;13.87;;
4563;SDS011;2294;51.818;8.484;2023-08-31T02:19:08;18.60;;;12.70;;
4563;SDS011;2294;51.818;8.484;2023-08-31T02:21:36;23.10;;;12.90;;
4563;SDS011;2294;51.818;8.484;2023-08-31T02:24:03;26.97;;;13.03;;
4563;SDS011;2294;51.818;8.484;2023-08-31T02:26:30;23.33;;;12.63;;
4563;SDS011;2294;51.818;8.484;2023-08-31T02:28:58;21.83;;;13.90;;
4563;SDS011;2294;51.818;8.484;2023-08-31T02:31:25;20.63;;;14.00;;
4563;SDS011;2294;51.818;8.484;2023-08-31T02:33:53;22.30;;;14.53;;
4563;SDS011;2294;51.818;8.484;2023-08-31T02:36:20;21.80;;;12.07;;
4563;SDS011;2294;51.818;8.484;2023-08-31T02:38:48;19.23;;;14.13;;
4563;SDS011;2294;51.818;8.484;2023-08-31T02:41:15;18.57;;;13.07;;
4563;SDS011;2294;51.818;8.484;2023-08-31T02:43:42;17.60;;;10.80;;
4563;SDS011;2294;51.818;8.484;2023-08-31T02:46:10;21.33;;;11.30;;
4563;SDS011;2294;51.818;8.484;2023-08-31T02:48:38;21.73;;;12.60;;
4563;SDS011;2294;51.818;8.484;2023-08-31T02:51:06;19.10;;;12.50;;
4563;SDS011;2294;51.818;8.484;2023-08-31T02:53:34;21.77;;;12.53;;
4563;SDS011;2294;51.818;8.484;2023-08-31T02:56:01;23.70;;;13.47;;
4563;SDS011;2294;51.818;8.484;2023-08-31T02:58:28;21.07;;;12.00;;
4563;SDS011;2294;51.818;8.484;2023-08-31T03:01:05;27.53;;;12.50;;
4563;SDS011;2294;51.818;8.484;2023-08-31T03:03:33;25.27;;;12.77;;
4563;SDS011;2294;51.818;8.484;2023-08-31T03:06:00;18.00;;;11.17;;
4563;SDS011;2294;51.818;8.484;2023-08-31T03:08:28;23.13;;;11.93;;
4563;SDS011;2294;51.818;8.484;2023-08-31T03:10:56;17.53;;;12.47;;
4563;SDS011;2294;51.818;8.484;2023-08-31T03:13:24;28.50;;;12.63;;
4563;SDS011;2294;51.818;8.484;2023-08-31T03:15:51;15.73;;;11.27;;
4563;SDS011;2294;51.818;8.484;2023-08-31T03:18:18;16.37;;;10.37;;
4563;SDS011;2294;51.818;8.484;2023-08-31T03:20:45;14.03;;;10.33;;
4563;SDS011;2294;51.818;8.484;2023-08-31T03:23:13;19.43;;;10.40;;
4563;SDS011;2294;51.818;8.484;2023-08-31T03:25:42;24.30;;;10.53;;
4563;SDS011;2294;51.818;8.484;2023-08-31T03:28:09;13.93;;;8.80;;
4563;SDS011;2294;51.818;8.484;2023-08-31T03:30:36;12.30;;;8.70;;
4563;SDS011;2294;51.818;8.484;2023-08-31T03:33:03;13.30;;;8.30;;
4563;SDS011;2294;51.818;8.484;2023-08-31T03:35:31;17.60;;;8.23;;
4563;SDS011;2294;51.818;8.484;2023-08-31T03:37:58;13.00;;;9.90;;
4563;SDS011;2294;51.818;8.484;2023-08-31T03:40:26;22.30;;;8.50;;
4563;SDS011;2294;51.818;8.484;2023-08-31T03:42:54;12.17;;;9.20;;
4563;SDS011;2294;51.818;8.484;2023-08-31T03:45:21;21.17;;;8.40;;
4563;SDS011;2294;51.818;8.484;2023-08-31T03:47:48;13.33;;;8.40;;
4563;SDS011;2294;51.818;8.484;2023-08-31T03:50:16;11.53;;;7.90;;
4563;SDS011;2294;51.818;8.484;2023-08-31T03:52:43;23.60;;;7.50;;
4563;SDS011;2294;51.818;8.484;2023-08-31T03:55:10;13.93;;;8.30;;
4563;SDS011;2294;51.818;8.484;2023-08-31T03:57:37;14.13;;;7.70;;
4563;SDS011;2294;51.818;8.484;2023-08-31T04:00:07;22.83;;;8.50;;
4563;SDS011;2294;51.818;8.484;2023-08-31T04:02:35;13.70;;;7.73;;
4563;SDS011;2294;51.818;8.484;2023-08-31T04:05:03;12.00;;;7.80;;
4563;SDS011;2294;51.818;8.484;2023-08-31T04:07:30;17.60;;;8.73;;
4563;SDS011;2294;51.818;8.484;2023-08-31T04:09:58;12.83;;;6.60;;
4563;SDS011;2294;51.818;8.484;2023-08-31T04:12:25;10.43;;;7.23;;
4563;SDS011;2294;51.818;8.484;2023-08-31T04:14:54;15.40;;;7.90;;
4563;SDS011;2294;51.818;8.484;2023-08-31T04:17:23;17.07;;;8.10;;
4563;SDS011;2294;51.818;8.484;2023-08-31T04:19:50;13.43;;;7.80;;
4563;SDS011;2294;51.818;8.484;2023-08-31T04:22:17;11.80;;;8.10;;
4563;SDS011;2294;51.818;8.484;2023-08-31T04:24:44;15.10;;;8.90;;
4563;SDS011;2294;51.818;8.484;2023-08-31T04:27:11;13.47;;;7.30;;
4563;SDS011;2294;51.818;8.484;2023-08-31T04:29:39;11.27;;;8.10;;
4563;SDS011;2294;51.818;8.484;2023-08-31T04:32:06;12.57;;;8.37;;
4563;SDS011;2294;51.818;8.484;2023-08-31T04:34:35;11.27;;;7.50;;
4563;SDS011;2294;51.818;8.484;2023-08-31T04:37:02;11.23;;;7.17;;
4563;SDS011;2294;51.818;8.484;2023-08-31T04:39:29;13.13;;;7.90;;
4563;SDS011;2294;51.818;8.484;2023-08-31T04:41:56;10.37;;;7.27;;
4563;SDS011;2294;51.818;8.484;2023-08-31T04:44:24;15.90;;;7.60;;
4563;SDS011;2294;51.818;8.484;2023-08-31T04:46:51;12.60;;;6.80;;
4563;SDS011;2294;51.818;8.484;2023-08-31T04:49:20;11.07;;;7.47;;
4563;SDS011;2294;51.818;8.484;2023-08-31T04:51:48;15.43;;;8.77;;
4563;SDS011;2294;51.818;8.484;2023-08-31T04:54:16;14.37;;;7.90;;
4563;SDS011;2294;51.818;8.484;2023-08-31T04:56:43;18.17;;;8.60;;
4563;SDS011;2294;51.818;8.484;2023-08-31T04:59:10;16.53;;;8.40;;
4563;SDS011;2294;51.818;8.484;2023-08-31T05:01:37;14.03;;;8.13;;
4563;SDS011;2294;51.818;8.484;2023-08-31T05:04:04;13.67;;;7.70;;
4563;SDS011;2294;51.818;8.484;2023-08-31T05:06:32;16.10;;;9.40;;
4563;SDS011;2294;51.818;8.484;2023-08-31T05:09:00;16.03;;;7.90;;
4563;SDS011;2294;51.818;8.484;2023-08-31T05:11:28;13.17;;;7.80;;
4563;SDS011;2294;51.818;8.484;2023-08-31T05:13:55;13.97;;;8.37;;
4563;SDS011;2294;51.818;8.484;2023-08-31T05:16:22;11.30;;;7.60;;
4563;SDS011;2294;51.818;8.484;2023-08-31T05:18:50;14.27;;;6.97;;
4563;SDS011;2294;51.818;8.484;2023-08-31T05:21:17;12.47;;;8.50;;
4563;SDS011;2294;51.818;8.484;2023-08-31T05:23:44;18.40;;;8.63;;
4563;SDS011;2294;51.818;8.484;2023-08-31T05:26:12;15.80;;;8.20;;
4563;SDS011;2294;51.818;8.484;2023-08-31T05:28:40;11.60;;;8.20;;
4563;SDS011;2294;51.818;8.484;2023-08-31T05:31:08;11.97;;;8.90;;
4563;SDS011;2294;51.818;8.484;2023-08-31T05:33:35;14.03;;;7.80;;
4563;SDS011;2294;51.818;8.484;2023-08-31T05:36:02;16.70;;;9.97;;
4563;SDS011;2294;51.818;8.484;2023-08-31T05:38:30;17.37;;;9.67;;
4563;SDS011;2294;51.818;8.484;2023-08-31T05:41:03;12.20;;;7.80;;
4563;SDS011;2294;51.818;8.484;2023-08-31T05:43:32;17.20;;;9.27;;
4563;SDS011;2294;51.818;8.484;2023-08-31T05:46:00;17.50;;;9.10;;
4563;SDS011;2294;51.818;8.484;2023-08-31T05:48:27;17.90;;;10.03;;
4563;SDS011;2294;51.818;8.484;2023-08-31T05:50:55;17.13;;;10.70;;
4563;SDS011;2294;51.818;8.484;2023-08-31T05:53:22;18.23;;;10.17;;
4563;SDS011;2294;51.818;8.484;2023-08-31T05:55:50;15.60;;;9.93;;
4563;SDS011;2294;51.818;8.484;2023-08-31T05:58:17;14.37;;;10.50;;
4563;SDS011;2294;51.818;8.484;2023-08-31T06:00:45;17.10;;;11.27;;
4563;SDS011;2294;51.818;8.484;2023-08-31T06:03:13;17.40;;;11.13;;
4563;SDS011;2294;51.818;8.484;2023-08-31T06:05:40;15.57;;;11.00;;
4563;SDS011;2294;51.818;8.484;2023-08-31T06:08:07;15.83;;;11.10;;
4563;SDS011;2294;51.818;8.484;2023-08-31T06:10:34;16.90;;;10.77;;
4563;SDS011;2294;51.818;8.484;2023-08-31T06:13:01;13.13;;;9.90;;
4563;SDS011;2294;51.818;8.484;2023-08-31T06:15:29;17.50;;;11.17;;
4563;SDS011;2294;51.818;8.484;2023-08-31T06:17:57;17.60;;;10.37;;
4563;SDS011;2294;51.818;8.484;2023-08-31T06:20:24;16.07;;;10.17;;
4563;SDS011;2294;51.818;8.484;2023-08-31T06:22:51;13.90;;;10.47;;
4563;SDS011;2294;51.818;8.484;2023-08-31T06:25:19;19.87;;;10.10;;
4563;SDS011;2294;51.818;8.484;2023-08-31T06:27:47;14.80;;;10.67;;
4563;SDS011;2294;51.818;8.484;2023-08-31T06:30:16;17.80;;;10.07;;
4563;SDS011;2294;51.818;8.484;2023-08-31T06:32:44;11.80;;;9.90;;
4563;SDS011;2294;51.818;8.484;2023-08-31T06:35:13;12.20;;;10.00;;
4563;SDS011;2294;51.818;8.484;2023-08-31T06:37:41;15.60;;;8.70;;
4563;SDS011;2294;51.818;8.484;2023-08-31T06:40:08;12.93;;;9.97;;
4563;SDS011;2294;51.818;8.484;2023-08-31T06:42:36;16.43;;;11.17;;
4563;SDS011;2294;51.818;8.484;2023-08-31T06:45:03;13.30;;;10.67;;
4563;SDS011;2294;51.818;8.484;2023-08-31T06:47:31;14.47;;;10.37;;
4563;SDS011;2294;51.818;8.484;2023-08-31T06:49:58;9.93;;;8.93;;
4563;SDS011;2294;51.818;8.484;2023-08-31T06:52:27;17.57;;;11.90;;
4563;SDS011;2294;51.818;8.484;2023-08-31T06:54:54;15.97;;;10.40;;
4563;SDS011;2294;51.818;8.484;2023-08-31T06:57:21;15.30;;;10.00;;
4563;SDS011;2294;51.818;8.484;2023-08-31T06:59:48;10.37;;;9.27;;
4563;SDS011;2294;51.818;8.484;2023-08-31T07:02:16;11.90;;;10.17;;
4563;SDS011;2294;51.818;8.484;2023-08-31T07:04:44;13.90;;;9.93;;
4563;SDS011;2294;51.818;8.484;2023-08-31T07:07:11;20.27;;;11.20;;
4563;SDS011;2294;51.818;8.484;2023-08-31T07:09:41;11.07;;;8.73;;
4563;SDS011;2294;51.818;8.484;2023-08-31T07:12:08;14.87;;;9.70;;
4563;SDS011;2294;51.818;8.484;2023-08-31T07:14:36;15.27;;;9.80;;
4563;SDS011;2294;51.818;8.484;2023-08-31T07:17:03;15.97;;;10.20;;
4563;SDS011;2294;51.818;8.484;2023-08-31T07:19:30;18.53;;;10.40;;
4563;SDS011;2294;51.818;8.484;2023-08-31T07:21:57;12.97;;;9.00;;
4563;SDS011;2294;51.818;8.484;2023-08-31T07:24:25;15.07;;;9.47;;
4563;SDS011;2294;51.818;8.484;2023-08-31T07:26:53;13.47;;;8.40;;
4563;SDS011;2294;51.818;8.484;2023-08-31T07:29:20;15.37;;;8.60;;
4563;SDS011;2294;51.818;8.484;2023-08-31T07:31:47;16.00;;;10.60;;
4563;SDS011;2294;51.818;8.484;2023-08-31T07:34:15;10.10;;;8.67;;
4563;SDS011;2294;51.818;8.484;2023-08-31T07:36:42;11.93;;;9.20;;
4563;SDS011;2294;51.818;8.484;2023-08-31T07:39:09;15.33;;;8.63;;
4563;SDS011;2294;51.818;8.484;2023-08-31T07:41:36;20.07;;;8.80;;
4563;SDS011;2294;51.818;8.484;2023-08-31T07:44:05;10.97;;;8.00;;
4563;SDS011;2294;51.818;8.484;2023-08-31T07:46:32;13.53;;;7.57;;
4563;SDS011;2294;51.818;8.484;2023-08-31T07:49:00;12.47;;;8.30;;
4563;SDS011;2294;51.818;8.484;2023-08-31T07:51:28;12.37;;;8.93;;
4563;SDS011;2294;51.818;8.484;2023-08-31T07:53:55;11.93;;;8.90;;
4563;SDS011;2294;51.818;8.484;2023-08-31T07:56:22;11.27;;;9.27;;
4563;SDS011;2294;51.818;8.484;2023-08-31T07:58:50;12.00;;;8.30;;
4563;SDS011;2294;51.818;8.484;2023-08-31T08:01:18;16.53;;;8.37;;
4563;SDS011;2294;51.818;8.484;2023-08-31T08:03:45;13.40;;;8.50;;
4563;SDS011;2294;51.818;8.484;2023-08-31T08:06:13;11.50;;;9.00;;
4563;SDS011;2294;51.818;8.484;2023-08-31T08:08:40;12.13;;;8.03;;
4563;SDS011;2294;51.818;8.484;2023-08-31T08:11:07;12.17;;;8.90;;
4563;SDS011;2294;51.818;8.484;2023-08-31T08:13:34;13.07;;;9.67;;
4563;SDS011;2294;51.818;8.484;2023-08-31T08:16:01;13.00;;;9.27;;
4563;SDS011;2294;51.818;8.484;2023-08-31T08:18:31;11.80;;;8.20;;
4563;SDS011;2294;51.818;8.484;2023-08-31T08:20:58;21.03;;;8.17;;
4563;SDS011;2294;51.818;8.484;2023-08-31T08:23:25;10.70;;;8.10;;
4563;SDS011;2294;51.818;8.484;2023-08-31T08:25:52;17.33;;;7.87;;
4563;SDS011;2294;51.818;8.484;2023-08-31T08:28:19;16.57;;;7.37;;
4563;SDS011;2294;51.818;8.484;2023-08-31T08:30:46;12.00;;;7.37;;
4563;SDS011;2294;51.818;8.484;2023-08-31T08:33:15;11.80;;;7.00;;
4563;SDS011;2294;51.818;8.484;2023-08-31T08:35:43;8.93;;;7.60;;
4563;SDS011;2294;51.818;8.484;2023-08-31T08:38:10;13.50;;;8.50;;
4563;SDS011;2294;51.818;8.484;2023-08-31T08:40:38;12.53;;;7.37;;
4563;SDS011;2294;51.818;8.484;2023-08-31T08:43:05;8.93;;;6.53;;
4563;SDS011;2294;51.818;8.484;2023-08-31T08:45:35;7.80;;;6.97;;
4563;SDS011;2294;51.818;8.484;2023-08-31T08:48:04;9.50;;;6.87;;
4563;SDS011;2294;51.818;8.484;2023-08-31T08:50:32;9.60;;;6.43;;
4563;SDS011;2294;51.818;8.484;2023-08-31T08:53:02;12.13;;;6.80;;
4563;SDS011;2294;51.818;8.484;2023-08-31T08:55:29;12.00;;;6.93;;
4563;SDS011;2294;51.818;8.484;2023-08-31T08:57:57;16.20;;;6.80;;
4563;SDS011;2294;51.818;8.484;2023-08-31T09:00:24;9.10;;;7.23;;
4563;SDS011;2294;51.818;8.484;2023-08-31T09:02:52;11.63;;;6.80;;
4563;SDS011;2294;51.818;8.484;2023-08-31T09:05:20;8.30;;;6.50;;
4563;SDS011;2294;51.818;8.484;2023-08-31T09:08:04;13.50;;;6.80;;
4563;SDS011;2294;51.818;8.484;2023-08-31T09:10:35;13.87;;;6.90;;
4563;SDS011;2294;51.818;8.484;2023-08-31T09:13:04;13.70;;;7.87;;
4563;SDS011;2294;51.818;8.484;2023-08-31T09:15:42;7.83;;;6.57;;
4563;SDS011;2294;51.818;8.484;2023-08-31T09:18:13;9.97;;;7.10;;
4563;SDS011;2294;51.818;8.484;2023-08-31T09:20:44;10.70;;;5.60;;
4563;SDS011;2294;51.818;8.484;2023-08-31T09:23:13;8.10;;;5.97;;
4563;SDS011;2294;51.818;8.484;2023-08-31T09:25:41;6.20;;;5.40;;
4563;SDS011;2294;51.818;8.484;2023-08-31T09:28:08;8.17;;;5.90;;
4563;SDS011;2294;51.818;8.484;2023-08-31T09:30:36;7.20;;;5.13;;
4563;SDS011;2294;51.818;8.484;2023-08-31T09:33:05;9.40;;;5.77;;
4563;SDS011;2294;51.818;8.484;2023-08-31T09:35:34;7.60;;;5.90;;
4563;SDS011;2294;51.818;8.484;2023-08-31T09:38:01;7.80;;;5.50;;
4563;SDS011;2294;51.818;8.484;2023-08-31T09:40:30;7.93;;;5.53;;
4563;SDS011;2294;51.818;8.484;2023-08-31T09:42:57;7.17;;;5.67;;
4563;SDS011;2294;51.818;8.484;2023-08-31T09:45:25;8.00;;;5.60;;
4563;SDS011;2294;51.818;8.484;2023-08-31T09:47:52;6.00;;;4.83;;
4563;SDS011;2294;51.818;8.484;2023-08-31T09:50:19;8.13;;;5.00;;
4563;SDS011;2294;51.818;8.484;2023-08-31T09:52:48;6.20;;;4.10;;
4563;SDS011;2294;51.818;8.484;2023-08-31T09:55:17;7.10;;;3.83;;
4563;SDS011;2294;51.818;8.484;2023-08-31T09:57:47;4.40;;;3.73;;
4563;SDS011;2294;51.818;8.484;2023-08-31T10:00:15;4.63;;;2.97;;
4563;SDS011;2294;51.818;8.484;2023-08-31T10:02:43;7.13;;;3.20;;
4563;SDS011;2294;51.818;8.484;2023-08-31T10:05:12;4.60;;;2.60;;
4563;SDS011;2294;51.818;8.484;2023-08-31T10:07:40;8.47;;;3.17;;
4563;SDS011;2294;51.818;8.484;2023-08-31T10:10:08;3.80;;;2.77;;
4563;SDS011;2294;51.818;8.484;2023-08-31T10:12:35;5.23;;;2.63;;
4563;SDS011;2294;51.818;8.484;2023-08-31T10:15:06;7.37;;;2.50;;
4563;SDS011;2294;51.818;8.484;2023-08-31T10:17:33;4.83;;;3.10;;
4563;SDS011;2294;51.818;8.484;2023-08-31T10:20:01;4.47;;;2.67;;
4563;SDS011;2294;51.818;8.484;2023-08-31T10:22:31;6.73;;;2.80;;
4563;SDS011;2294;51.818;8.484;2023-08-31T10:25:00;6.50;;;2.40;;
4563;SDS011;2294;51.818;8.484;2023-08-31T10:27:29;8.80;;;3.80;;
4563;SDS011;2294;51.818;8.484;2023-08-31T10:30:14;5.23;;;2.97;;
4563;SDS011;2294;51.818;8.484;2023-08-31T10:32:41;7.17;;;3.30;;
4563;SDS011;2294;51.818;8.484;2023-08-31T10:35:08;7.77;;;2.93;;
4563;SDS011;2294;51.818;8.484;2023-08-31T10:37:36;5.03;;;2.90;;
4563;SDS011;2294;51.818;8.484;2023-08-31T10:40:06;5.70;;;2.83;;
4563;SDS011;2294;51.818;8.484;2023-08-31T10:42:43;4.00;;;3.00;;
4563;SDS011;2294;51.818;8.484;2023-08-31T10:45:10;9.47;;;3.60;;
4563;SDS011;2294;51.818;8.484;2023-08-31T10:47:39;8.53;;;3.47;;
4563;SDS011;2294;51.818;8.484;2023-08-31T10:50:15;4.80;;;2.50;;
4563;SDS011;2294;51.818;8.484;2023-08-31T10:52:43;5.80;;;2.40;;
4563;SDS011;2294;51.818;8.484;2023-08-31T10:55:10;3.47;;;2.10;;
4563;SDS011;2294;51.818;8.484;2023-08-31T10:57:38;3.33;;;2.20;;
4563;SDS011;2294;51.818;8.484;2023-08-31T11:00:06;4.03;;;3.00;;
4563;SDS011;2294;51.818;8.484;2023-08-31T11:02:34;5.27;;;2.33;;
4563;SDS011;2294;51.818;8.484;2023-08-31T11:05:05;2.97;;;1.93;;
4563;SDS011;2294;51.818;8.484;2023-08-31T11:07:33;2.10;;;1.90;;
4563;SDS011;2294;51.818;8.484;2023-08-31T11:10:08;5.33;;;2.70;;
4563;SDS011;2294;51.818;8.484;2023-08-31T11:12:35;4.77;;;2.00;;
4563;SDS011;2294;51.818;8.484;2023-08-31T11:15:03;2.97;;;2.00;;
4563;SDS011;2294;51.818;8.484;2023-08-31T11:17:30;4.20;;;1.87;;
4563;SDS011;2294;51.818;8.484;2023-08-31T11:19:58;4.93;;;1.73;;
4563;SDS011;2294;51.818;8.484;2023-08-31T11:22:27;2.60;;;1.97;;
4563;SDS011;2294;51.818;8.484;2023-08-31T11:24:54;4.33;;;1.60;;
4563;SDS011;2294;51.818;8.484;2023-08-31T11:27:23;3.10;;;1.57;;
4563;SDS011;2294;51.818;8.484;2023-08-31T11:29:50;2.20;;;1.20;;
4563;SDS011;2294;51.818;8.484;2023-08-31T11:32:17;9.80;;;1.73;;
4563;SDS011;2294;51.818;8.484;2023-08-31T11:34:45;2.30;;;1.20;;
4563;SDS011;2294;51.818;8.484;2023-08-31T11:37:12;4.53;;;1.17;;
4563;SDS011;2294;51.818;8.484;2023-08-31T11:39:43;2.37;;;1.37;;
4563;SDS011;2294;51.818;8.484;2023-08-31T11:42:15;3.30;;;1.70;;
4563;SDS011;2294;51.818;8.484;2023-08-31T11:44:44;2.33;;;1.00;;
4563;SDS011;2294;51.818;8.484;2023-08-31T11:47:11;6.13;;;1.53;;
4563;SDS011;2294;51.818;8.484;2023-08-31T11:49:39;3.63;;;1.40;;
4563;SDS011;2294;51.818;8.484;2023-08-31T11:52:06;3.50;;;1.40;;
4563;SDS011;2294;51.818;8.484;2023-08-31T11:54:36;3.10;;;1.40;;
4563;SDS011;2294;51.818;8.484;2023-08-31T11:57:07;3.53;;;1.33;;
4563;SDS011;2294;51.818;8.484;2023-08-31T11:59:35;12.73;;;1.40;;
4563;SDS011;2294;51.818;8.484;2023-08-31T12:02:05;4.93;;;1.50;;
4563;SDS011;2294;51.818;8.484;2023-08-31T12:04:32;2.60;;;1.23;;
4563;SDS011;2294;51.818;8.484;2023-08-31T12:07:02;4.20;;;1.77;;
4563;SDS011;2294;51.818;8.484;2023-08-31T12:09:30;2.20;;;1.07;;
4563;SDS011;2294;51.818;8.484;2023-08-31T12:11:57;1.93;;;1.23;;
4563;SDS011;2294;51.818;8.484;2023-08-31T12:14:27;3.20;;;1.97;;
4563;SDS011;2294;51.818;8.484;2023-08-31T12:16:59;2.50;;;1.30;;
4563;SDS011;2294;51.818;8.484;2023-08-31T12:19:27;5.50;;;1.70;;
4563;SDS011;2294;51.818;8.484;2023-08-31T12:21:54;1.73;;;1.20;;
4563;SDS011;2294;51.818;8.484;2023-08-31T12:24:22;4.90;;;1.73;;
4563;SDS011;2294;51.818;8.484;2023-08-31T12:26:50;2.53;;;1.87;;
4563;SDS011;2294;51.818;8.484;2023-08-31T12:29:18;3.90;;;1.70;;
4563;SDS011;2294;51.818;8.484;2023-08-31T12:31:47;6.53;;;1.80;;
4563;SDS011;2294;51.818;8.484;2023-08-31T12:34:14;3.03;;;1.33;;
4563;SDS011;2294;51.818;8.484;2023-08-31T12:36:42;2.90;;;1.67;;
4563;SDS011;2294;51.818;8.484;2023-08-31T12:39:09;4.80;;;1.50;;
4563;SDS011;2294;51.818;8.484;2023-08-31T12:41:37;3.63;;;1.80;;
4563;SDS011;2294;51.818;8.484;2023-08-31T12:44:04;4.93;;;1.67;;
4563;SDS011;2294;51.818;8.484;2023-08-31T12:46:32;3.43;;;1.90;;
4563;SDS011;2294;51.818;8.484;2023-08-31T12:49:00;1.93;;;1.73;;
4563;SDS011;2294;51.818;8.484;2023-08-31T12:51:28;3.80;;;1.67;;
4563;SDS011;2294;51.818;8.484;2023-08-31T12:53:55;2.13;;;1.43;;
4563;SDS011;2294;51.818;8.484;2023-08-31T12:56:23;3.07;;;2.13;;
4563;SDS011;2294;51.818;8.484;2023-08-31T12:58:50;3.90;;;1.90;;
4563;SDS011;2294;51.818;8.484;2023-08-31T13:01:18;3.73;;;1.63;;
4563;SDS011;2294;51.818;8.484;2023-08-31T13:03:45;3.10;;;1.87;;
4563;SDS011;2294;51.818;8.484;2023-08-31T13:06:14;3.03;;;2.03;;
4563;SDS011;2294;51.818;8.484;2023-08-31T13:08:42;3.77;;;1.90;;
4563;SDS011;2294;51.818;8.484;2023-08-31T13:11:09;3.97;;;1.80;;
4563;SDS011;2294;51.818;8.484;2023-08-31T13:13:37;2.50;;;1.33;;
4563;SDS011;2294;51.818;8.484;2023-08-31T13:16:05;3.57;;;2.13;;
4563;SDS011;2294;51.818;8.484;2023-08-31T13:18:32;4.27;;;1.67;;
4563;SDS011;2294;51.818;8.484;2023-08-31T13:20:59;9.97;;;2.00;;
4563;SDS011;2294;51.818;8.484;2023-08-31T13:23:29;4.17;;;1.40;;
4563;SDS011;2294;51.818;8.484;2023-08-31T13:25:56;3.90;;;1.83;;
4563;SDS011;2294;51.818;8.484;2023-08-31T13:28:23;8.73;;;1.40;;
4563;SDS011;2294;51.818;8.484;2023-08-31T13:30:54;4.43;;;1.87;;
4563;SDS011;2294;51.818;8.484;2023-08-31T13:33:22;3.83;;;1.97;;
4563;SDS011;2294;51.818;8.484;2023-08-31T13:35:49;5.27;;;1.50;;
4563;SDS011;2294;51.818;8.484;2023-08-31T13:38:16;2.00;;;1.60;;
4563;SDS011;2294;51.818;8.484;2023-08-31T13:40:45;2.37;;;1.57;;
4563;SDS011;2294;51.818;8.484;2023-08-31T13:43:12;3.53;;;1.97;;
4563;SDS011;2294;51.818;8.484;2023-08-31T13:45:39;5.93;;;1.80;;
4563;SDS011;2294;51.818;8.484;2023-08-31T13:48:06;3.37;;;1.50;;
4563;SDS011;2294;51.818;8.484;2023-08-31T13:50:34;3.00;;;1.77;;
4563;SDS011;2294;51.818;8.484;2023-08-31T13:53:01;3.40;;;2.60;;
4563;SDS011;2294;51.818;8.484;2023-08-31T13:55:28;1.73;;;1.63;;
4563;SDS011;2294;51.818;8.484;2023-08-31T13:58:03;4.60;;;1.80;;
4563;SDS011;2294;51.818;8.484;2023-08-31T14:00:31;4.03;;;1.70;;
4563;SDS011;2294;51.818;8.484;2023-08-31T14:02:58;1.50;;;1.00;;
4563;SDS011;2294;51.818;8.484;2023-08-31T14:05:28;1.70;;;1.50;;
4563;SDS011;2294;51.818;8.484;2023-08-31T14:07:56;4.13;;;1.30;;
4563;SDS011;2294;51.818;8.484;2023-08-31T14:10:26;1.60;;;1.30;;
4563;SDS011;2294;51.818;8.484;2023-08-31T14:12:53;4.20;;;1.40;;
4563;SDS011;2294;51.818;8.484;2023-08-31T14:15:22;5.83;;;1.80;;
4563;SDS011;2294;51.818;8.484;2023-08-31T14:17:49;3.47;;;1.70;;
4563;SDS011;2294;51.818;8.484;2023-08-31T14:20:18;3.40;;;1.43;;
4563;SDS011;2294;51.818;8.484;2023-08-31T14:22:45;2.37;;;1.30;;
4563;SDS011;2294;51.818;8.484;2023-08-31T14:25:12;2.03;;;1.50;;
4563;SDS011;2294;51.818;8.484;2023-08-31T14:27:40;3.63;;;1.50;;
4563;SDS011;2294;51.818;8.484;2023-08-31T14:30:07;1.33;;;1.20;;
4563;SDS011;2294;51.818;8.484;2023-08-31T14:32:36;3.80;;;1.43;;
4563;SDS011;2294;51.818;8.484;2023-08-31T14:35:04;4.63;;;1.63;;
4563;SDS011;2294;51.818;8.484;2023-08-31T14:37:31;5.63;;;1.50;;
4563;SDS011;2294;51.818;8.484;2023-08-31T14:39:59;1.43;;;1.20;;
4563;SDS011;2294;51.818;8.484;2023-08-31T14:42:26;4.13;;;1.50;;
4563;SDS011;2294;51.818;8.484;2023-08-31T14:44:53;3.53;;;1.90;;
4563;SDS011;2294;51.818;8.484;2023-08-31T14:47:20;2.90;;;1.63;;
4563;SDS011;2294;51.818;8.484;2023-08-31T14:49:49;2.97;;;1.80;;
4563;SDS011;2294;51.818;8.484;2023-08-31T14:52:16;2.27;;;1.70;;
4563;SDS011;2294;51.818;8.484;2023-08-31T14:54:43;1.63;;;1.53;;
4563;SDS011;2294;51.818;8.484;2023-08-31T14:57:10;5.70;;;1.70;;
4563;SDS011;2294;51.818;8.484;2023-08-31T14:59:37;1.97;;;1.23;;
4563;SDS011;2294;51.818;8.484;2023-08-31T15:02:05;10.70;;;1.70;;
4563;SDS011;2294;51.818;8.484;2023-08-31T15:04:32;1.30;;;1.10;;
4563;SDS011;2294;51.818;8.484;2023-08-31T15:07:01;2.87;;;1.77;;